sensor_id;sensor_type;location;lat;lon;timestamp;P1;durP1;ratioP1;P2;durP2;ratioP2
7843;SDS011;3967;48.702;9.326;2023-01-30T00:01:42;19.90;;;11.67;;
7843;SDS011;3967;48.702;9.326;2023-01-30T00:04:10;22.73;;;13.47;;
7843;SDS011;3967;48.702;9.326;2023-01-30T00:06:40;19.80;;;12.77;;
7843;SDS011;3967;48.702;9.326;2023-01-30T00:09:08;21.27;;;13.10;;
7843;SDS011;3967;48.702;9.326;2023-01-30T00:11:38;21.20;;;12.60;;
7843;SDS011;3967;48.702;9.326;2023-01-30T00:14:05;19.87;;;13.17;;
7843;SDS011;3967;48.702;9.326;2023-01-30T00:16:32;19.07;;;12.70;;
7843;SDS011;3967;48.702;9.326;2023-01-30T00:18:59;22.40;;;13.90;;
7843;SDS011;3967;48.702;9.326;2023-01-30T00:21:25;18.17;;;12.47;;
7843;SDS011;3967;48.702;9.326;2023-01-30T00:23:52;21.53;;;12.80;;
7843;SDS011;3967;48.702;9.326;2023-01-30T00:26:19;18.23;;;12.20;;
7843;SDS011;3967;48.702;9.326;2023-01-30T00:28:45;30.43;;;18.90;;
7843;SDS011;3967;48.702;9.326;2023-01-30T00:31:12;23.97;;;14.20;;
7843;SDS011;3967;48.702;9.326;2023-01-30T00:33:39;22.80;;;13.97;;
7843;SDS011;3967;48.702;9.326;2023-01-30T00:36:06;42.00;;;20.93;;
7843;SDS011;3967;48.702;9.326;2023-01-30T00:38:34;20.30;;;12.93;;
7843;SDS011;3967;48.702;9.326;2023-01-30T00:41:01;21.53;;;13.93;;
7843;SDS011;3967;48.702;9.326;2023-01-30T00:43:28;18.53;;;11.50;;
7843;SDS011;3967;48.702;9.326;2023-01-30T00:46:34;19.17;;;12.23;;
7843;SDS011;3967;48.702;9.326;2023-01-30T00:49:19;19.20;;;11.93;;
7843;SDS011;3967;48.702;9.326;2023-01-30T00:51:46;16.70;;;11.87;;
7843;SDS011;3967;48.702;9.326;2023-01-30T00:54:12;17.13;;;11.63;;
7843;SDS011;3967;48.702;9.326;2023-01-30T00:56:39;17.20;;;10.43;;
7843;SDS011;3967;48.702;9.326;2023-01-30T00:59:06;18.73;;;12.20;;
7843;SDS011;3967;48.702;9.326;2023-01-30T01:01:32;17.17;;;11.53;;
7843;SDS011;3967;48.702;9.326;2023-01-30T01:03:59;17.57;;;11.63;;
7843;SDS011;3967;48.702;9.326;2023-01-30T01:06:26;18.37;;;12.17;;
7843;SDS011;3967;48.702;9.326;2023-01-30T01:08:53;16.47;;;11.20;;
7843;SDS011;3967;48.702;9.326;2023-01-30T01:11:19;21.00;;;12.60;;
7843;SDS011;3967;48.702;9.326;2023-01-30T01:13:53;17.63;;;11.23;;
7843;SDS011;3967;48.702;9.326;2023-01-30T01:16:28;17.73;;;10.93;;
7843;SDS011;3967;48.702;9.326;2023-01-30T01:18:56;17.03;;;11.13;;
7843;SDS011;3967;48.702;9.326;2023-01-30T01:21:23;20.33;;;12.57;;
7843;SDS011;3967;48.702;9.326;2023-01-30T01:23:51;17.63;;;11.33;;
7843;SDS011;3967;48.702;9.326;2023-01-30T01:26:23;17.97;;;11.30;;
7843;SDS011;3967;48.702;9.326;2023-01-30T01:28:57;16.77;;;11.03;;
7843;SDS011;3967;48.702;9.326;2023-01-30T01:31:24;16.37;;;10.60;;
7843;SDS011;3967;48.702;9.326;2023-01-30T01:33:51;17.47;;;11.33;;
7843;SDS011;3967;48.702;9.326;2023-01-30T01:36:18;19.73;;;12.90;;
7843;SDS011;3967;48.702;9.326;2023-01-30T01:39:04;18.83;;;11.23;;
7843;SDS011;3967;48.702;9.326;2023-01-30T01:41:31;18.77;;;11.37;;
7843;SDS011;3967;48.702;9.326;2023-01-30T01:43:59;19.53;;;12.63;;
7843;SDS011;3967;48.702;9.326;2023-01-30T01:46:36;16.60;;;10.90;;
7843;SDS011;3967;48.702;9.326;2023-01-30T01:49:11;17.60;;;11.23;;
7843;SDS011;3967;48.702;9.326;2023-01-30T01:52:04;23.40;;;11.77;;
7843;SDS011;3967;48.702;9.326;2023-01-30T01:54:42;18.47;;;11.50;;
7843;SDS011;3967;48.702;9.326;2023-01-30T01:57:25;18.90;;;11.73;;
7843;SDS011;3967;48.702;9.326;2023-01-30T02:00:10;21.50;;;11.73;;
7843;SDS011;3967;48.702;9.326;2023-01-30T02:02:39;17.17;;;10.50;;
7843;SDS011;3967;48.702;9.326;2023-01-30T02:05:08;18.07;;;11.87;;
7843;SDS011;3967;48.702;9.326;2023-01-30T02:07:39;17.50;;;10.57;;
7843;SDS011;3967;48.702;9.326;2023-01-30T02:10:19;17.80;;;11.23;;
7843;SDS011;3967;48.702;9.326;2023-01-30T02:12:50;16.93;;;10.70;;
7843;SDS011;3967;48.702;9.326;2023-01-30T02:15:17;16.70;;;10.30;;
7843;SDS011;3967;48.702;9.326;2023-01-30T02:17:45;17.60;;;11.67;;
7843;SDS011;3967;48.702;9.326;2023-01-30T02:20:15;16.23;;;10.67;;
7843;SDS011;3967;48.702;9.326;2023-01-30T02:23:32;16.53;;;10.83;;
7843;SDS011;3967;48.702;9.326;2023-01-30T02:33:49;16.83;;;10.27;;
7843;SDS011;3967;48.702;9.326;2023-01-30T02:36:26;16.60;;;10.73;;
7843;SDS011;3967;48.702;9.326;2023-01-30T02:44:26;21.67;;;11.80;;
7843;SDS011;3967;48.702;9.326;2023-01-30T02:47:03;16.87;;;10.57;;
7843;SDS011;3967;48.702;9.326;2023-01-30T02:49:47;18.17;;;11.10;;
7843;SDS011;3967;48.702;9.326;2023-01-30T02:52:19;21.13;;;10.77;;
7843;SDS011;3967;48.702;9.326;2023-01-30T02:54:47;16.37;;;11.20;;
7843;SDS011;3967;48.702;9.326;2023-01-30T02:57:18;19.23;;;11.17;;
7843;SDS011;3967;48.702;9.326;2023-01-30T02:59:48;15.73;;;10.67;;
7843;SDS011;3967;48.702;9.326;2023-01-30T03:08:24;17.33;;;11.27;;
7843;SDS011;3967;48.702;9.326;2023-01-30T03:11:01;15.63;;;10.47;;
7843;SDS011;3967;48.702;9.326;2023-01-30T03:13:52;16.37;;;10.83;;
7843;SDS011;3967;48.702;9.326;2023-01-30T03:16:28;19.30;;;11.40;;
7843;SDS011;3967;48.702;9.326;2023-01-30T03:19:02;17.30;;;10.60;;
7843;SDS011;3967;48.702;9.326;2023-01-30T03:21:31;19.77;;;11.93;;
7843;SDS011;3967;48.702;9.326;2023-01-30T03:23:58;19.37;;;11.80;;
7843;SDS011;3967;48.702;9.326;2023-01-30T03:26:26;18.80;;;11.70;;
7843;SDS011;3967;48.702;9.326;2023-01-30T03:28:58;19.00;;;11.63;;
7843;SDS011;3967;48.702;9.326;2023-01-30T03:31:26;18.00;;;11.27;;
7843;SDS011;3967;48.702;9.326;2023-01-30T03:33:53;22.80;;;12.17;;
7843;SDS011;3967;48.702;9.326;2023-01-30T03:36:19;17.80;;;11.40;;
7843;SDS011;3967;48.702;9.326;2023-01-30T03:38:46;16.23;;;10.40;;
7843;SDS011;3967;48.702;9.326;2023-01-30T03:41:13;17.17;;;10.77;;
7843;SDS011;3967;48.702;9.326;2023-01-30T03:43:40;16.43;;;10.70;;
7843;SDS011;3967;48.702;9.326;2023-01-30T03:46:07;17.70;;;11.00;;
7843;SDS011;3967;48.702;9.326;2023-01-30T03:48:33;16.20;;;10.97;;
7843;SDS011;3967;48.702;9.326;2023-01-30T03:51:00;16.77;;;10.60;;
7843;SDS011;3967;48.702;9.326;2023-01-30T03:53:27;16.53;;;10.20;;
7843;SDS011;3967;48.702;9.326;2023-01-30T03:55:53;16.97;;;11.00;;
7843;SDS011;3967;48.702;9.326;2023-01-30T03:58:20;17.83;;;11.50;;
7843;SDS011;3967;48.702;9.326;2023-01-30T04:00:47;17.80;;;11.17;;
7843;SDS011;3967;48.702;9.326;2023-01-30T04:03:13;17.93;;;11.43;;
7843;SDS011;3967;48.702;9.326;2023-01-30T04:05:43;16.43;;;10.73;;
7843;SDS011;3967;48.702;9.326;2023-01-30T04:08:10;15.27;;;10.97;;
7843;SDS011;3967;48.702;9.326;2023-01-30T04:10:37;16.83;;;10.70;;
7843;SDS011;3967;48.702;9.326;2023-01-30T04:13:03;14.63;;;9.90;;
7843;SDS011;3967;48.702;9.326;2023-01-30T04:15:30;20.13;;;10.97;;
7843;SDS011;3967;48.702;9.326;2023-01-30T04:17:57;14.93;;;10.60;;
7843;SDS011;3967;48.702;9.326;2023-01-30T04:20:23;15.47;;;9.63;;
7843;SDS011;3967;48.702;9.326;2023-01-30T04:22:50;17.60;;;10.90;;
7843;SDS011;3967;48.702;9.326;2023-01-30T04:25:17;16.27;;;10.00;;
7843;SDS011;3967;48.702;9.326;2023-01-30T04:27:44;17.10;;;10.47;;
7843;SDS011;3967;48.702;9.326;2023-01-30T04:30:11;15.40;;;10.10;;
7843;SDS011;3967;48.702;9.326;2023-01-30T04:32:37;15.20;;;10.13;;
7843;SDS011;3967;48.702;9.326;2023-01-30T04:35:04;17.30;;;10.33;;
7843;SDS011;3967;48.702;9.326;2023-01-30T04:37:31;16.47;;;10.93;;
7843;SDS011;3967;48.702;9.326;2023-01-30T04:40:01;18.13;;;10.63;;
7843;SDS011;3967;48.702;9.326;2023-01-30T04:42:28;16.80;;;10.63;;
7843;SDS011;3967;48.702;9.326;2023-01-30T04:44:55;16.03;;;9.63;;
7843;SDS011;3967;48.702;9.326;2023-01-30T04:47:22;18.73;;;11.10;;
7843;SDS011;3967;48.702;9.326;2023-01-30T04:49:48;18.30;;;10.60;;
7843;SDS011;3967;48.702;9.326;2023-01-30T04:52:15;14.87;;;9.93;;
7843;SDS011;3967;48.702;9.326;2023-01-30T04:54:42;19.47;;;11.20;;
7843;SDS011;3967;48.702;9.326;2023-01-30T04:57:09;15.70;;;9.83;;
7843;SDS011;3967;48.702;9.326;2023-01-30T04:59:35;16.23;;;9.47;;
7843;SDS011;3967;48.702;9.326;2023-01-30T05:02:02;15.37;;;9.77;;
7843;SDS011;3967;48.702;9.326;2023-01-30T05:04:28;16.10;;;10.03;;
7843;SDS011;3967;48.702;9.326;2023-01-30T05:06:55;15.10;;;10.10;;
7843;SDS011;3967;48.702;9.326;2023-01-30T05:09:22;17.37;;;10.43;;
7843;SDS011;3967;48.702;9.326;2023-01-30T05:11:49;15.43;;;9.77;;
7843;SDS011;3967;48.702;9.326;2023-01-30T05:14:15;16.27;;;9.93;;
7843;SDS011;3967;48.702;9.326;2023-01-30T05:16:42;16.50;;;9.90;;
7843;SDS011;3967;48.702;9.326;2023-01-30T05:19:09;14.03;;;9.53;;
7843;SDS011;3967;48.702;9.326;2023-01-30T05:21:39;18.30;;;10.23;;
7843;SDS011;3967;48.702;9.326;2023-01-30T05:24:07;16.30;;;10.03;;
7843;SDS011;3967;48.702;9.326;2023-01-30T05:26:34;14.47;;;9.57;;
7843;SDS011;3967;48.702;9.326;2023-01-30T05:29:01;16.40;;;10.00;;
7843;SDS011;3967;48.702;9.326;2023-01-30T05:31:28;17.77;;;9.50;;
7843;SDS011;3967;48.702;9.326;2023-01-30T05:33:54;15.10;;;10.07;;
7843;SDS011;3967;48.702;9.326;2023-01-30T05:36:21;14.87;;;9.10;;
7843;SDS011;3967;48.702;9.326;2023-01-30T05:38:48;15.03;;;9.57;;
7843;SDS011;3967;48.702;9.326;2023-01-30T05:41:15;11.73;;;8.10;;
7843;SDS011;3967;48.702;9.326;2023-01-30T05:43:43;15.33;;;9.53;;
7843;SDS011;3967;48.702;9.326;2023-01-30T05:46:13;16.73;;;10.03;;
7843;SDS011;3967;48.702;9.326;2023-01-30T05:48:40;16.20;;;9.47;;
7843;SDS011;3967;48.702;9.326;2023-01-30T05:51:13;13.40;;;8.97;;
7843;SDS011;3967;48.702;9.326;2023-01-30T05:53:42;15.27;;;9.50;;
7843;SDS011;3967;48.702;9.326;2023-01-30T05:56:08;13.47;;;9.00;;
7843;SDS011;3967;48.702;9.326;2023-01-30T05:58:35;14.80;;;10.17;;
7843;SDS011;3967;48.702;9.326;2023-01-30T06:01:03;13.80;;;9.07;;
7843;SDS011;3967;48.702;9.326;2023-01-30T06:03:34;13.47;;;9.23;;
7843;SDS011;3967;48.702;9.326;2023-01-30T06:06:02;20.40;;;8.60;;
7843;SDS011;3967;48.702;9.326;2023-01-30T06:08:30;15.50;;;9.07;;
7843;SDS011;3967;48.702;9.326;2023-01-30T06:11:01;12.50;;;9.20;;
7843;SDS011;3967;48.702;9.326;2023-01-30T06:13:32;12.70;;;8.37;;
7843;SDS011;3967;48.702;9.326;2023-01-30T06:15:59;13.13;;;8.63;;
7843;SDS011;3967;48.702;9.326;2023-01-30T06:18:26;15.20;;;9.53;;
7843;SDS011;3967;48.702;9.326;2023-01-30T06:20:53;14.60;;;9.53;;
7843;SDS011;3967;48.702;9.326;2023-01-30T06:23:20;15.97;;;8.83;;
7843;SDS011;3967;48.702;9.326;2023-01-30T06:25:48;12.33;;;8.20;;
7843;SDS011;3967;48.702;9.326;2023-01-30T06:28:16;13.30;;;7.93;;
7843;SDS011;3967;48.702;9.326;2023-01-30T06:30:44;12.37;;;9.00;;
7843;SDS011;3967;48.702;9.326;2023-01-30T06:33:11;12.93;;;8.80;;
7843;SDS011;3967;48.702;9.326;2023-01-30T06:35:37;12.77;;;8.47;;
7843;SDS011;3967;48.702;9.326;2023-01-30T06:38:05;13.13;;;8.10;;
7843;SDS011;3967;48.702;9.326;2023-01-30T06:40:34;11.50;;;7.83;;
7843;SDS011;3967;48.702;9.326;2023-01-30T06:43:01;11.00;;;7.53;;
7843;SDS011;3967;48.702;9.326;2023-01-30T06:45:28;13.43;;;8.10;;
7843;SDS011;3967;48.702;9.326;2023-01-30T06:47:55;15.07;;;7.80;;
7843;SDS011;3967;48.702;9.326;2023-01-30T06:50:23;11.03;;;7.10;;
7843;SDS011;3967;48.702;9.326;2023-01-30T06:52:51;12.03;;;7.73;;
7843;SDS011;3967;48.702;9.326;2023-01-30T06:55:19;12.23;;;7.53;;
7843;SDS011;3967;48.702;9.326;2023-01-30T06:57:49;12.73;;;8.50;;
7843;SDS011;3967;48.702;9.326;2023-01-30T07:02:44;12.77;;;8.17;;
7843;SDS011;3967;48.702;9.326;2023-01-30T07:05:11;11.60;;;7.63;;
7843;SDS011;3967;48.702;9.326;2023-01-30T07:07:38;15.10;;;8.20;;
7843;SDS011;3967;48.702;9.326;2023-01-30T07:10:05;12.33;;;8.23;;
7843;SDS011;3967;48.702;9.326;2023-01-30T07:12:34;10.23;;;7.60;;
7843;SDS011;3967;48.702;9.326;2023-01-30T07:15:02;12.00;;;7.30;;
7843;SDS011;3967;48.702;9.326;2023-01-30T07:17:30;11.33;;;7.50;;
7843;SDS011;3967;48.702;9.326;2023-01-30T07:19:57;12.03;;;8.23;;
7843;SDS011;3967;48.702;9.326;2023-01-30T07:22:24;12.87;;;8.47;;
7843;SDS011;3967;48.702;9.326;2023-01-30T07:24:50;14.73;;;9.90;;
7843;SDS011;3967;48.702;9.326;2023-01-30T07:27:17;11.83;;;7.90;;
7843;SDS011;3967;48.702;9.326;2023-01-30T07:29:44;11.07;;;7.43;;
7843;SDS011;3967;48.702;9.326;2023-01-30T07:32:15;12.17;;;7.77;;
7843;SDS011;3967;48.702;9.326;2023-01-30T07:34:44;11.03;;;7.43;;
7843;SDS011;3967;48.702;9.326;2023-01-30T07:37:12;10.63;;;7.27;;
7843;SDS011;3967;48.702;9.326;2023-01-30T07:39:39;10.70;;;7.53;;
7843;SDS011;3967;48.702;9.326;2023-01-30T07:42:06;9.97;;;6.77;;
7843;SDS011;3967;48.702;9.326;2023-01-30T07:44:33;9.67;;;6.47;;
7843;SDS011;3967;48.702;9.326;2023-01-30T07:47:00;10.27;;;7.13;;
7843;SDS011;3967;48.702;9.326;2023-01-30T07:49:27;11.50;;;7.60;;
7843;SDS011;3967;48.702;9.326;2023-01-30T07:51:54;10.27;;;6.97;;
7843;SDS011;3967;48.702;9.326;2023-01-30T07:54:20;9.47;;;6.00;;
7843;SDS011;3967;48.702;9.326;2023-01-30T07:56:47;10.90;;;7.00;;
7843;SDS011;3967;48.702;9.326;2023-01-30T07:59:14;10.97;;;6.87;;
7843;SDS011;3967;48.702;9.326;2023-01-30T08:01:41;11.63;;;6.63;;
7843;SDS011;3967;48.702;9.326;2023-01-30T08:04:07;11.03;;;6.87;;
7843;SDS011;3967;48.702;9.326;2023-01-30T08:06:34;11.40;;;7.30;;
7843;SDS011;3967;48.702;9.326;2023-01-30T08:09:04;10.13;;;7.00;;
7843;SDS011;3967;48.702;9.326;2023-01-30T08:11:32;12.90;;;6.50;;
7843;SDS011;3967;48.702;9.326;2023-01-30T08:13:59;9.80;;;6.90;;
7843;SDS011;3967;48.702;9.326;2023-01-30T08:16:26;9.93;;;6.07;;
7843;SDS011;3967;48.702;9.326;2023-01-30T08:18:53;10.30;;;6.80;;
7843;SDS011;3967;48.702;9.326;2023-01-30T08:21:20;11.40;;;7.67;;
7843;SDS011;3967;48.702;9.326;2023-01-30T08:23:46;11.07;;;6.60;;
7843;SDS011;3967;48.702;9.326;2023-01-30T08:26:13;7.67;;;6.47;;
7843;SDS011;3967;48.702;9.326;2023-01-30T08:28:40;10.80;;;6.23;;
7843;SDS011;3967;48.702;9.326;2023-01-30T08:31:08;10.57;;;6.60;;
7843;SDS011;3967;48.702;9.326;2023-01-30T08:33:36;8.97;;;6.07;;
7843;SDS011;3967;48.702;9.326;2023-01-30T08:36:03;10.03;;;6.40;;
7843;SDS011;3967;48.702;9.326;2023-01-30T08:38:30;10.37;;;6.47;;
7843;SDS011;3967;48.702;9.326;2023-01-30T08:40:57;9.70;;;6.53;;
7843;SDS011;3967;48.702;9.326;2023-01-30T08:43:24;9.67;;;5.90;;
7843;SDS011;3967;48.702;9.326;2023-01-30T08:45:52;9.80;;;5.90;;
7843;SDS011;3967;48.702;9.326;2023-01-30T08:48:19;12.67;;;7.10;;
7843;SDS011;3967;48.702;9.326;2023-01-30T08:50:46;10.83;;;6.87;;
7843;SDS011;3967;48.702;9.326;2023-01-30T08:53:16;10.43;;;6.30;;
7843;SDS011;3967;48.702;9.326;2023-01-30T08:55:43;9.77;;;5.63;;
7843;SDS011;3967;48.702;9.326;2023-01-30T08:58:10;9.23;;;5.80;;
7843;SDS011;3967;48.702;9.326;2023-01-30T09:00:37;8.43;;;5.67;;
7843;SDS011;3967;48.702;9.326;2023-01-30T09:03:04;6.90;;;5.60;;
7843;SDS011;3967;48.702;9.326;2023-01-30T09:05:31;8.07;;;5.40;;
7843;SDS011;3967;48.702;9.326;2023-01-30T09:07:58;8.80;;;5.53;;
7843;SDS011;3967;48.702;9.326;2023-01-30T09:10:24;7.50;;;5.47;;
7843;SDS011;3967;48.702;9.326;2023-01-30T09:12:51;9.57;;;5.93;;
7843;SDS011;3967;48.702;9.326;2023-01-30T09:15:18;7.30;;;4.70;;
7843;SDS011;3967;48.702;9.326;2023-01-30T09:17:45;8.70;;;5.70;;
7843;SDS011;3967;48.702;9.326;2023-01-30T09:20:11;8.00;;;5.60;;
7843;SDS011;3967;48.702;9.326;2023-01-30T09:22:38;9.20;;;5.37;;
7843;SDS011;3967;48.702;9.326;2023-01-30T09:25:05;6.80;;;4.63;;
7843;SDS011;3967;48.702;9.326;2023-01-30T09:27:33;8.37;;;5.93;;
7843;SDS011;3967;48.702;9.326;2023-01-30T09:30:00;8.10;;;5.53;;
7843;SDS011;3967;48.702;9.326;2023-01-30T09:32:26;7.57;;;5.87;;
7843;SDS011;3967;48.702;9.326;2023-01-30T09:34:53;6.73;;;4.80;;
7843;SDS011;3967;48.702;9.326;2023-01-30T09:37:20;6.97;;;5.07;;
7843;SDS011;3967;48.702;9.326;2023-01-30T09:39:47;7.57;;;5.30;;
7843;SDS011;3967;48.702;9.326;2023-01-30T09:42:39;6.10;;;4.77;;
7843;SDS011;3967;48.702;9.326;2023-01-30T09:55:56;7.03;;;4.73;;
7843;SDS011;3967;48.702;9.326;2023-01-30T09:58:25;4.57;;;3.90;;
7843;SDS011;3967;48.702;9.326;2023-01-30T10:04:10;5.73;;;4.23;;
7843;SDS011;3967;48.702;9.326;2023-01-30T10:06:43;6.10;;;3.63;;
7843;SDS011;3967;48.702;9.326;2023-01-30T10:12:17;6.37;;;3.90;;
7843;SDS011;3967;48.702;9.326;2023-01-30T10:17:50;6.37;;;4.47;;
7843;SDS011;3967;48.702;9.326;2023-01-30T10:24:13;8.30;;;4.87;;
7843;SDS011;3967;48.702;9.326;2023-01-30T10:26:19;6.80;;;4.57;;
7843;SDS011;3967;48.702;9.326;2023-01-30T10:31:41;4.97;;;3.73;;
7843;SDS011;3967;48.702;9.326;2023-01-30T10:34:13;5.90;;;3.57;;
7843;SDS011;3967;48.702;9.326;2023-01-30T10:37:11;6.23;;;3.90;;
7843;SDS011;3967;48.702;9.326;2023-01-30T10:39:48;3.70;;;3.40;;
7843;SDS011;3967;48.702;9.326;2023-01-30T10:42:47;5.73;;;3.77;;
7843;SDS011;3967;48.702;9.326;2023-01-30T10:45:41;6.63;;;3.43;;
7843;SDS011;3967;48.702;9.326;2023-01-30T10:48:34;6.43;;;3.77;;
7843;SDS011;3967;48.702;9.326;2023-01-30T10:51:15;5.13;;;4.03;;
7843;SDS011;3967;48.702;9.326;2023-01-30T10:56:20;4.27;;;3.03;;
7843;SDS011;3967;48.702;9.326;2023-01-30T10:59:02;3.20;;;2.90;;
7843;SDS011;3967;48.702;9.326;2023-01-30T11:01:42;3.10;;;2.73;;
7843;SDS011;3967;48.702;9.326;2023-01-30T11:04:17;5.83;;;2.90;;
7843;SDS011;3967;48.702;9.326;2023-01-30T11:06:56;4.17;;;2.70;;
7843;SDS011;3967;48.702;9.326;2023-01-30T11:09:36;3.20;;;2.67;;
7843;SDS011;3967;48.702;9.326;2023-01-30T11:12:04;3.47;;;2.60;;
7843;SDS011;3967;48.702;9.326;2023-01-30T11:14:48;3.30;;;3.00;;
7843;SDS011;3967;48.702;9.326;2023-01-30T11:17:30;4.43;;;2.40;;
7843;SDS011;3967;48.702;9.326;2023-01-30T11:20:21;3.33;;;2.90;;
7843;SDS011;3967;48.702;9.326;2023-01-30T11:23:05;3.33;;;2.73;;
7843;SDS011;3967;48.702;9.326;2023-01-30T11:28:42;3.63;;;2.60;;
7843;SDS011;3967;48.702;9.326;2023-01-30T11:31:18;3.10;;;2.27;;
7843;SDS011;3967;48.702;9.326;2023-01-30T11:34:14;3.27;;;2.20;;
7843;SDS011;3967;48.702;9.326;2023-01-30T11:36:42;2.57;;;2.10;;
7843;SDS011;3967;48.702;9.326;2023-01-30T11:41:42;2.57;;;2.33;;
7843;SDS011;3967;48.702;9.326;2023-01-30T11:44:25;2.87;;;2.03;;
7843;SDS011;3967;48.702;9.326;2023-01-30T11:47:00;2.43;;;2.20;;
7843;SDS011;3967;48.702;9.326;2023-01-30T11:49:51;2.67;;;2.00;;
7843;SDS011;3967;48.702;9.326;2023-01-30T11:52:41;3.27;;;2.50;;
7843;SDS011;3967;48.702;9.326;2023-01-30T11:55:12;2.37;;;2.17;;
7843;SDS011;3967;48.702;9.326;2023-01-30T11:57:42;2.77;;;2.40;;
7843;SDS011;3967;48.702;9.326;2023-01-30T12:00:16;2.90;;;2.10;;
7843;SDS011;3967;48.702;9.326;2023-01-30T12:02:49;2.33;;;2.00;;
7843;SDS011;3967;48.702;9.326;2023-01-30T12:08:31;4.93;;;2.80;;
7843;SDS011;3967;48.702;9.326;2023-01-30T12:11:23;5.37;;;2.87;;
7843;SDS011;3967;48.702;9.326;2023-01-30T12:13:58;4.57;;;2.80;;
7843;SDS011;3967;48.702;9.326;2023-01-30T12:22:46;3.20;;;2.80;;
7843;SDS011;3967;48.702;9.326;2023-01-30T12:25:21;5.03;;;2.70;;
7843;SDS011;3967;48.702;9.326;2023-01-30T12:27:53;4.57;;;2.83;;
7843;SDS011;3967;48.702;9.326;2023-01-30T12:32:59;4.13;;;2.90;;
7843;SDS011;3967;48.702;9.326;2023-01-30T12:36:21;4.57;;;3.27;;
7843;SDS011;3967;48.702;9.326;2023-01-30T12:41:11;4.37;;;3.33;;
7843;SDS011;3967;48.702;9.326;2023-01-30T12:44:04;3.80;;;2.93;;
7843;SDS011;3967;48.702;9.326;2023-01-30T12:58:31;5.47;;;4.00;;
7843;SDS011;3967;48.702;9.326;2023-01-30T13:06:37;7.47;;;5.27;;
7843;SDS011;3967;48.702;9.326;2023-01-30T13:09:33;7.30;;;5.70;;
7843;SDS011;3967;48.702;9.326;2023-01-30T13:12:08;7.93;;;6.10;;
7843;SDS011;3967;48.702;9.326;2023-01-30T13:15:00;7.43;;;5.77;;
7843;SDS011;3967;48.702;9.326;2023-01-30T13:17:43;9.90;;;6.77;;
7843;SDS011;3967;48.702;9.326;2023-01-30T13:26:18;8.50;;;5.93;;
7843;SDS011;3967;48.702;9.326;2023-01-30T13:28:46;8.40;;;5.17;;
7843;SDS011;3967;48.702;9.326;2023-01-30T13:31:20;7.30;;;5.23;;
7843;SDS011;3967;48.702;9.326;2023-01-30T13:33:50;6.27;;;4.63;;
7843;SDS011;3967;48.702;9.326;2023-01-30T13:36:39;8.50;;;4.33;;
7843;SDS011;3967;48.702;9.326;2023-01-30T13:39:15;6.23;;;4.53;;
7843;SDS011;3967;48.702;9.326;2023-01-30T13:41:54;7.10;;;5.00;;
7843;SDS011;3967;48.702;9.326;2023-01-30T13:44:26;7.70;;;4.83;;
7843;SDS011;3967;48.702;9.326;2023-01-30T13:46:56;8.63;;;4.93;;
7843;SDS011;3967;48.702;9.326;2023-01-30T13:49:44;6.60;;;4.80;;
7843;SDS011;3967;48.702;9.326;2023-01-30T14:00:40;7.23;;;5.27;;
7843;SDS011;3967;48.702;9.326;2023-01-30T14:03:22;6.63;;;4.77;;
7843;SDS011;3967;48.702;9.326;2023-01-30T14:08:27;8.33;;;5.80;;
7843;SDS011;3967;48.702;9.326;2023-01-30T14:11:00;9.40;;;5.27;;
7843;SDS011;3967;48.702;9.326;2023-01-30T14:13:27;7.80;;;5.80;;
7843;SDS011;3967;48.702;9.326;2023-01-30T14:15:57;8.23;;;5.90;;
7843;SDS011;3967;48.702;9.326;2023-01-30T14:24:00;9.30;;;5.50;;
7843;SDS011;3967;48.702;9.326;2023-01-30T14:34:46;10.90;;;7.77;;
7843;SDS011;3967;48.702;9.326;2023-01-30T14:39:54;9.97;;;6.80;;
7843;SDS011;3967;48.702;9.326;2023-01-30T14:42:25;10.23;;;6.90;;
7843;SDS011;3967;48.702;9.326;2023-01-30T14:47:26;10.63;;;6.30;;
7843;SDS011;3967;48.702;9.326;2023-01-30T14:50:18;8.47;;;6.17;;
7843;SDS011;3967;48.702;9.326;2023-01-30T14:52:47;7.50;;;5.97;;
7843;SDS011;3967;48.702;9.326;2023-01-30T14:55:20;8.70;;;6.47;;
7843;SDS011;3967;48.702;9.326;2023-01-30T14:57:52;11.83;;;6.67;;
7843;SDS011;3967;48.702;9.326;2023-01-30T15:00:28;8.17;;;6.53;;
7843;SDS011;3967;48.702;9.326;2023-01-30T15:03:01;7.90;;;4.97;;
7843;SDS011;3967;48.702;9.326;2023-01-30T15:05:33;10.17;;;6.00;;
7843;SDS011;3967;48.702;9.326;2023-01-30T15:16:09;8.33;;;5.13;;
7843;SDS011;3967;48.702;9.326;2023-01-30T15:32:24;7.10;;;5.17;;
7843;SDS011;3967;48.702;9.326;2023-01-30T15:37:28;7.33;;;5.30;;
7843;SDS011;3967;48.702;9.326;2023-01-30T15:40:16;7.37;;;5.33;;
7843;SDS011;3967;48.702;9.326;2023-01-30T15:42:58;8.27;;;5.13;;
7843;SDS011;3967;48.702;9.326;2023-01-30T15:51:30;7.70;;;5.03;;
7843;SDS011;3967;48.702;9.326;2023-01-30T15:53:58;6.97;;;4.63;;
7843;SDS011;3967;48.702;9.326;2023-01-30T15:56:29;5.30;;;4.70;;
7843;SDS011;3967;48.702;9.326;2023-01-30T15:58:57;7.77;;;5.57;;
7843;SDS011;3967;48.702;9.326;2023-01-30T16:01:26;7.00;;;5.13;;
7843;SDS011;3967;48.702;9.326;2023-01-30T16:03:54;8.40;;;5.53;;
7843;SDS011;3967;48.702;9.326;2023-01-30T16:06:30;7.67;;;4.80;;
7843;SDS011;3967;48.702;9.326;2023-01-30T16:09:10;8.27;;;5.70;;
7843;SDS011;3967;48.702;9.326;2023-01-30T16:11:45;8.67;;;6.47;;
7843;SDS011;3967;48.702;9.326;2023-01-30T16:14:13;9.10;;;6.17;;
7843;SDS011;3967;48.702;9.326;2023-01-30T16:16:51;10.43;;;6.03;;
7843;SDS011;3967;48.702;9.326;2023-01-30T16:19:25;10.67;;;6.83;;
7843;SDS011;3967;48.702;9.326;2023-01-30T16:21:57;8.53;;;5.77;;
7843;SDS011;3967;48.702;9.326;2023-01-30T16:24:32;5.50;;;4.73;;
7843;SDS011;3967;48.702;9.326;2023-01-30T16:27:04;6.97;;;5.20;;
7843;SDS011;3967;48.702;9.326;2023-01-30T16:29:42;7.50;;;6.40;;
7843;SDS011;3967;48.702;9.326;2023-01-30T16:32:16;9.47;;;7.13;;
7843;SDS011;3967;48.702;9.326;2023-01-30T16:34:44;11.07;;;8.17;;
7843;SDS011;3967;48.702;9.326;2023-01-30T16:39:44;11.20;;;7.00;;
7843;SDS011;3967;48.702;9.326;2023-01-30T16:42:19;9.47;;;6.30;;
7843;SDS011;3967;48.702;9.326;2023-01-30T16:44:47;8.73;;;5.67;;
7843;SDS011;3967;48.702;9.326;2023-01-30T16:49:52;6.50;;;5.27;;
7843;SDS011;3967;48.702;9.326;2023-01-30T16:52:30;6.40;;;4.90;;
7843;SDS011;3967;48.702;9.326;2023-01-30T16:55:16;7.83;;;4.87;;
7843;SDS011;3967;48.702;9.326;2023-01-30T16:57:58;5.23;;;4.50;;
7843;SDS011;3967;48.702;9.326;2023-01-30T17:00:35;6.40;;;4.90;;
7843;SDS011;3967;48.702;9.326;2023-01-30T17:03:27;6.20;;;4.90;;
7843;SDS011;3967;48.702;9.326;2023-01-30T17:05:56;6.67;;;4.80;;
7843;SDS011;3967;48.702;9.326;2023-01-30T17:11:36;7.40;;;5.20;;
7843;SDS011;3967;48.702;9.326;2023-01-30T17:17:06;6.67;;;4.80;;
7843;SDS011;3967;48.702;9.326;2023-01-30T17:19:36;7.07;;;5.20;;
7843;SDS011;3967;48.702;9.326;2023-01-30T17:22:04;5.17;;;4.13;;
7843;SDS011;3967;48.702;9.326;2023-01-30T17:24:41;7.67;;;4.80;;
7843;SDS011;3967;48.702;9.326;2023-01-30T17:27:07;7.13;;;4.67;;
7843;SDS011;3967;48.702;9.326;2023-01-30T17:29:35;5.57;;;4.30;;
7843;SDS011;3967;48.702;9.326;2023-01-30T17:32:14;6.50;;;4.63;;
7843;SDS011;3967;48.702;9.326;2023-01-30T17:34:41;5.77;;;4.17;;
7843;SDS011;3967;48.702;9.326;2023-01-30T17:37:13;5.23;;;4.17;;
7843;SDS011;3967;48.702;9.326;2023-01-30T17:39:42;4.73;;;4.33;;
7843;SDS011;3967;48.702;9.326;2023-01-30T17:42:09;4.93;;;3.73;;
7843;SDS011;3967;48.702;9.326;2023-01-30T17:44:37;6.20;;;4.50;;
7843;SDS011;3967;48.702;9.326;2023-01-30T17:47:04;6.80;;;4.50;;
7843;SDS011;3967;48.702;9.326;2023-01-30T17:49:31;5.97;;;4.67;;
7843;SDS011;3967;48.702;9.326;2023-01-30T17:51:58;4.27;;;3.87;;
7843;SDS011;3967;48.702;9.326;2023-01-30T17:54:25;5.07;;;3.80;;
7843;SDS011;3967;48.702;9.326;2023-01-30T17:56:53;7.07;;;5.13;;
7843;SDS011;3967;48.702;9.326;2023-01-30T17:59:31;6.20;;;4.83;;
7843;SDS011;3967;48.702;9.326;2023-01-30T18:01:58;7.10;;;4.90;;
7843;SDS011;3967;48.702;9.326;2023-01-30T18:04:25;7.57;;;5.23;;
7843;SDS011;3967;48.702;9.326;2023-01-30T18:06:53;8.73;;;6.23;;
7843;SDS011;3967;48.702;9.326;2023-01-30T18:09:31;7.27;;;5.43;;
7843;SDS011;3967;48.702;9.326;2023-01-30T18:11:58;7.63;;;5.27;;
7843;SDS011;3967;48.702;9.326;2023-01-30T18:14:25;5.13;;;4.20;;